createdAt,value
2022-10-17T00:01:15.032Z,4.53
2022-10-17T00:03:43.420Z,6.88
2022-10-17T00:06:14.017Z,6.78
2022-10-17T00:08:43.628Z,5.35
2022-10-17T00:11:18.537Z,6.15
2022-10-17T00:13:47.385Z,5.40
2022-10-17T00:16:16.929Z,4.75
2022-10-17T00:18:45.304Z,6.45
2022-10-17T00:21:17.661Z,8.45
2022-10-17T00:23:46.435Z,6.22
2022-10-17T00:26:17.007Z,5.80
2022-10-17T00:28:47.930Z,4.35
2022-10-17T00:31:18.776Z,4.38
2022-10-17T00:33:48.194Z,5.43
2022-10-17T00:36:20.163Z,4.40
2022-10-17T00:38:52.232Z,5.78
2022-10-17T00:41:24.760Z,6.60
2022-10-17T00:43:56.797Z,5.00
2022-10-17T00:46:30.471Z,6.07
2022-10-17T00:49:02.541Z,4.88
2022-10-17T00:51:35.651Z,5.00
2022-10-17T00:54:05.873Z,5.40
2022-10-17T00:56:35.705Z,5.22
2022-10-17T01:01:41.073Z,5.82
2022-10-17T01:04:09.658Z,5.18
2022-10-17T01:06:38.058Z,5.65
2022-10-17T01:09:06.629Z,4.18
2022-10-17T01:11:45.340Z,4.40
2022-10-17T01:14:22.970Z,4.35
2022-10-17T01:16:57.411Z,4.43
2022-10-17T01:19:45.538Z,5.60
2022-10-17T01:22:24.579Z,4.57
2022-10-17T01:25:12.489Z,6.43
2022-10-17T01:27:57.695Z,5.55
2022-10-17T01:31:10.189Z,4.35
2022-10-17T01:33:47.355Z,6.82
2022-10-17T01:36:27.041Z,5.15
2022-10-17T01:39:01.893Z,7.53
2022-10-17T01:41:40.370Z,5.30
2022-10-17T01:44:13.689Z,7.85
2022-10-17T01:46:46.160Z,6.90
2022-10-17T01:49:18.310Z,7.30
2022-10-17T01:51:52.265Z,4.85
2022-10-17T01:54:26.052Z,4.03
2022-10-17T01:56:59.347Z,5.78
2022-10-17T01:59:34.742Z,5.30
2022-10-17T02:04:33.959Z,5.43
2022-10-17T02:07:07.602Z,4.07
2022-10-17T02:09:36.934Z,4.53
2022-10-17T02:12:16.864Z,5.13
2022-10-17T02:14:57.738Z,3.58
2022-10-17T02:17:36.843Z,5.63
2022-10-17T02:20:14.797Z,3.47
2022-10-17T02:22:50.493Z,7.00
2022-10-17T02:25:28.029Z,5.47
2022-10-17T02:28:04.656Z,4.63
2022-10-17T02:30:40.894Z,6.18
2022-10-17T02:33:14.734Z,5.45
2022-10-17T02:35:48.203Z,4.75
2022-10-17T02:38:19.234Z,5.13
2022-10-17T02:40:50.687Z,3.55
2022-10-17T02:43:19.445Z,4.32
2022-10-17T02:45:48.730Z,4.35
2022-10-17T02:48:26.696Z,6.40
2022-10-17T02:51:02.868Z,4.25
2022-10-17T02:53:40.928Z,5.80
2022-10-17T02:56:15.724Z,5.13
2022-10-17T02:58:46.997Z,8.85
2022-10-17T03:01:17.320Z,5.63
2022-10-17T03:03:47.474Z,5.35
2022-10-17T03:06:15.877Z,4.65
2022-10-17T03:08:44.378Z,4.78
2022-10-17T03:11:13.028Z,6.22
2022-10-17T03:13:41.465Z,5.60
2022-10-17T03:16:09.868Z,3.63
2022-10-17T03:18:39.850Z,4.07
2022-10-17T03:21:11.313Z,3.90
2022-10-17T03:23:39.882Z,6.25
2022-10-17T03:26:09.222Z,7.15
2022-10-17T03:28:38.087Z,5.30
2022-10-17T03:31:10.718Z,4.47
2022-10-17T03:33:40.235Z,5.68
2022-10-17T03:36:12.578Z,5.80
2022-10-17T03:38:41.678Z,6.07
2022-10-17T03:41:10.584Z,5.22
2022-10-17T03:43:40.808Z,7.38
2022-10-17T03:46:10.391Z,6.50
2022-10-17T03:48:39.660Z,4.18
2022-10-17T03:51:11.272Z,4.60
2022-10-17T03:53:47.550Z,4.13
2022-10-17T03:56:17.877Z,6.18
2022-10-17T03:58:51.584Z,6.95
2022-10-17T04:01:20.799Z,4.93
2022-10-17T04:03:51.381Z,4.40
2022-10-17T04:06:22.766Z,4.20
2022-10-17T04:08:51.485Z,7.15
2022-10-17T04:11:26.989Z,4.43
2022-10-17T04:14:00.273Z,3.72
2022-10-17T04:16:30.283Z,6.22
2022-10-17T04:19:04.640Z,5.23
2022-10-17T04:21:40.444Z,4.85
2022-10-17T04:24:11.965Z,6.03
2022-10-17T04:26:58.960Z,5.80
2022-10-17T04:29:31.014Z,4.90
2022-10-17T04:32:15.113Z,5.05
2022-10-17T04:34:51.366Z,4.32
2022-10-17T04:37:24.105Z,4.00
2022-10-17T04:39:55.112Z,6.60
2022-10-17T04:42:25.999Z,4.75
2022-10-17T04:44:55.737Z,5.32
2022-10-17T04:47:26.556Z,4.20
2022-10-17T04:49:55.014Z,5.38
2022-10-17T04:52:26.314Z,5.45
2022-10-17T04:54:55.435Z,3.92
2022-10-17T04:57:24.867Z,5.50
2022-10-17T05:00:10.584Z,4.38
2022-10-17T05:02:55.332Z,5.53
2022-10-17T05:05:23.777Z,3.92
2022-10-17T05:07:56.369Z,3.03
2022-10-17T05:10:27.861Z,5.93
2022-10-17T05:12:56.336Z,4.18
2022-10-17T05:15:28.022Z,4.40
2022-10-17T05:17:57.490Z,6.95
2022-10-17T05:20:27.964Z,4.35
2022-10-17T05:22:59.721Z,5.80
2022-10-17T05:25:32.674Z,6.60
2022-10-17T05:28:01.034Z,6.13
2022-10-17T05:30:31.445Z,5.70
2022-10-17T05:33:03.336Z,6.88
2022-10-17T05:35:33.006Z,3.80
2022-10-17T05:38:02.798Z,5.03
2022-10-17T05:40:34.340Z,4.88
2022-10-17T05:43:02.701Z,4.18
2022-10-17T05:45:32.588Z,5.07
2022-10-17T05:48:01.876Z,5.72
2022-10-17T05:50:30.701Z,6.68
2022-10-17T05:53:08.229Z,5.90
2022-10-17T05:55:41.870Z,3.72
2022-10-17T05:58:17.637Z,3.85
2022-10-17T06:00:58.118Z,3.50
2022-10-17T06:03:27.244Z,5.13
2022-10-17T06:05:55.621Z,8.10
2022-10-17T06:08:25.764Z,5.53
2022-10-17T06:10:54.259Z,4.88
2022-10-17T06:13:23.149Z,6.32
2022-10-17T06:15:56.589Z,4.00
2022-10-17T06:18:26.286Z,5.22
2022-10-17T06:20:55.254Z,4.10
2022-10-17T06:23:25.154Z,4.78
2022-10-17T06:26:00.548Z,4.93
2022-10-17T06:28:30.787Z,4.70
2022-10-17T06:31:02.020Z,3.75
2022-10-17T06:33:30.464Z,4.82
2022-10-17T06:35:58.845Z,5.43
2022-10-17T06:38:29.494Z,4.10
2022-10-17T06:41:08.138Z,4.53
2022-10-17T06:43:37.254Z,5.50
2022-10-17T06:46:26.618Z,9.88
2022-10-17T06:49:01.571Z,5.68
2022-10-17T06:51:37.572Z,3.90
2022-10-17T06:54:10.580Z,3.80
2022-10-17T06:56:39.060Z,5.20
2022-10-17T06:59:30.467Z,4.20
2022-10-17T07:02:08.300Z,5.13
2022-10-17T07:04:38.907Z,5.95
2022-10-17T07:07:07.503Z,4.35
2022-10-17T07:09:37.953Z,5.10
2022-10-17T07:12:08.315Z,4.20
2022-10-17T07:14:36.862Z,7.38
2022-10-17T07:17:05.667Z,3.75
2022-10-17T07:19:35.392Z,5.43
2022-10-17T07:22:04.218Z,7.78
2022-10-17T07:24:38.330Z,3.72
2022-10-17T07:27:17.033Z,4.80
2022-10-17T07:29:45.479Z,5.18
2022-10-17T07:34:49.166Z,4.05
2022-10-17T07:37:17.617Z,5.45
2022-10-17T07:39:54.442Z,4.15
2022-10-17T07:42:23.171Z,3.72
2022-10-17T07:44:52.658Z,4.72
2022-10-17T07:47:22.248Z,3.55
2022-10-17T07:49:51.993Z,5.70
2022-10-17T07:52:20.430Z,4.00
2022-10-17T07:54:48.768Z,4.88
2022-10-17T07:57:18.406Z,4.53
2022-10-17T07:59:51.183Z,5.22
2022-10-17T08:02:23.767Z,3.55
2022-10-17T08:04:52.885Z,5.35
2022-10-17T08:07:25.544Z,5.65
2022-10-17T08:09:57.998Z,3.80
2022-10-17T08:12:35.196Z,4.38
2022-10-17T08:15:03.904Z,2.97
2022-10-17T08:17:32.662Z,3.15
2022-10-17T08:20:01.219Z,6.15
2022-10-17T08:22:30.049Z,4.28
2022-10-17T08:24:58.951Z,2.88
2022-10-17T08:27:29.725Z,3.78
2022-10-17T08:29:58.552Z,5.32
2022-10-17T08:32:29.055Z,5.43
2022-10-17T08:34:57.907Z,4.55
2022-10-17T08:37:26.715Z,3.58
2022-10-17T08:39:55.217Z,2.80
2022-10-17T08:42:43.925Z,2.65
2022-10-17T08:45:24.180Z,3.80
2022-10-17T08:47:58.718Z,4.45
2022-10-17T08:50:36.399Z,5.30
2022-10-17T08:53:12.272Z,3.97
2022-10-17T08:55:45.580Z,6.43
2022-10-17T08:58:20.149Z,5.57
2022-10-17T09:00:58.035Z,4.72
2022-10-17T09:03:46.949Z,5.15
2022-10-17T09:06:30.603Z,4.47
2022-10-17T09:09:12.342Z,5.75
2022-10-17T09:12:04.553Z,3.58
2022-10-17T09:15:00.389Z,3.53
2022-10-17T09:17:40.040Z,3.40
2022-10-17T09:20:13.958Z,5.50
2022-10-17T09:22:47.292Z,4.97
2022-10-17T09:25:19.785Z,4.65
2022-10-17T09:27:50.697Z,3.17
2022-10-17T09:30:45.234Z,4.03
2022-10-17T09:33:28.397Z,2.85
2022-10-17T09:36:10.203Z,5.47
2022-10-17T09:38:42.317Z,3.47
2022-10-17T09:41:44.106Z,2.95
2022-10-17T09:44:17.009Z,3.92
2022-10-17T09:46:58.030Z,7.10
2022-10-17T09:49:32.645Z,3.72
2022-10-17T09:52:01.950Z,5.00
2022-10-17T09:54:42.767Z,4.38
2022-10-17T09:57:13.399Z,5.43
2022-10-17T09:59:44.975Z,4.65
2022-10-17T10:02:25.168Z,5.68
2022-10-17T10:05:06.589Z,4.75
2022-10-17T10:07:38.314Z,4.97
2022-10-17T10:10:09.655Z,4.63
2022-10-17T10:12:40.017Z,4.15
2022-10-17T10:15:34.489Z,6.30
2022-10-17T10:18:04.927Z,5.10
2022-10-17T10:20:35.971Z,6.85
2022-10-17T10:23:17.093Z,4.50
2022-10-17T10:25:56.222Z,7.60
2022-10-17T10:28:28.754Z,3.33
2022-10-17T10:30:59.683Z,5.75
2022-10-17T10:33:31.601Z,4.20
2022-10-17T10:36:03.267Z,2.75
2022-10-17T10:38:33.759Z,3.88
2022-10-17T10:41:07.845Z,3.92
2022-10-17T10:43:39.392Z,4.28
2022-10-17T10:46:19.161Z,6.47
2022-10-17T10:48:58.492Z,5.60
2022-10-17T10:51:33.554Z,4.55
2022-10-17T10:56:38.831Z,3.58
2022-10-17T10:59:18.879Z,3.43
2022-10-17T11:01:53.231Z,3.97
2022-10-17T11:04:30.251Z,5.68
2022-10-17T11:07:04.685Z,3.83
2022-10-17T11:09:46.362Z,4.35
2022-10-17T11:12:20.436Z,3.80
2022-10-17T11:14:54.869Z,4.95
2022-10-17T11:17:32.467Z,6.40
2022-10-17T11:20:15.004Z,2.63
2022-10-17T11:22:47.698Z,4.82
2022-10-17T11:25:29.747Z,4.65
2022-10-17T11:28:03.695Z,3.15
2022-10-17T11:33:08.849Z,3.53
2022-10-17T11:35:43.118Z,5.65
2022-10-17T11:38:18.696Z,5.03
2022-10-17T11:40:51.367Z,7.95
2022-10-17T11:43:24.183Z,3.22
2022-10-17T11:45:57.945Z,5.10
2022-10-17T11:48:29.860Z,5.43
2022-10-17T11:54:01.182Z,2.53
2022-10-17T11:56:42.725Z,5.20
2022-10-17T11:59:30.959Z,4.93
2022-10-17T12:02:05.626Z,6.05
2022-10-17T12:04:49.615Z,5.50
2022-10-17T12:07:25.367Z,2.72
2022-10-17T12:09:58.803Z,3.60
2022-10-17T12:12:30.049Z,3.60
2022-10-17T12:15:29.335Z,3.17
2022-10-17T12:18:01.472Z,6.30
2022-10-17T12:20:33.217Z,4.45
2022-10-17T12:23:25.019Z,5.90
2022-10-17T12:25:56.977Z,8.43
2022-10-17T12:28:30.472Z,2.42
2022-10-17T12:31:02.720Z,6.13
2022-10-17T12:33:34.650Z,3.90
2022-10-17T12:36:46.937Z,3.05
2022-10-17T12:39:54.812Z,7.28
2022-10-17T12:42:46.818Z,3.83
2022-10-17T12:45:56.919Z,4.43
2022-10-17T12:49:04.204Z,4.32
2022-10-17T12:52:07.537Z,7.65
2022-10-17T12:54:48.039Z,3.42
2022-10-17T12:57:35.959Z,5.47
2022-10-17T13:00:15.067Z,4.32
2022-10-17T13:02:43.698Z,3.67
2022-10-17T13:05:16.584Z,3.25
2022-10-17T13:07:48.251Z,3.58
2022-10-17T13:13:07.458Z,5.63
2022-10-17T13:15:37.789Z,3.50
2022-10-17T13:18:06.851Z,3.85
2022-10-17T13:20:35.330Z,3.03
2022-10-17T13:23:04.127Z,3.38
2022-10-17T13:25:35.468Z,4.93
2022-10-17T13:28:14.096Z,5.65
2022-10-17T13:30:49.669Z,3.53
2022-10-17T13:33:35.227Z,2.63
2022-10-17T13:36:07.960Z,3.72
2022-10-17T13:38:39.031Z,5.00
2022-10-17T13:41:35.839Z,6.20
2022-10-17T13:44:11.458Z,3.88
2022-10-17T13:46:41.117Z,3.10
2022-10-17T13:49:33.437Z,6.05
2022-10-17T13:52:04.642Z,4.43
2022-10-17T13:54:36.185Z,4.43
2022-10-17T13:57:06.459Z,6.15
2022-10-17T13:59:39.875Z,3.95
2022-10-17T14:02:15.268Z,2.78
2022-10-17T14:05:15.697Z,3.13
2022-10-17T14:08:05.519Z,3.15
2022-10-17T14:10:28.581Z,2.67
2022-10-17T14:12:57.843Z,3.88
2022-10-17T14:15:29.631Z,4.65
2022-10-17T14:18:04.241Z,4.82
2022-10-17T14:23:36.527Z,3.15
2022-10-17T14:26:07.511Z,4.82
2022-10-17T14:28:36.405Z,2.38
2022-10-17T14:31:25.981Z,3.97
2022-10-17T14:33:55.251Z,4.20
2022-10-17T14:36:35.783Z,5.13
2022-10-17T14:39:11.858Z,3.95
2022-10-17T14:41:45.758Z,8.82
2022-10-17T14:44:26.610Z,4.38
2022-10-17T14:47:00.236Z,5.32
2022-10-17T14:49:36.569Z,6.25
2022-10-17T14:52:27.314Z,4.38
2022-10-17T14:54:59.889Z,5.40
2022-10-17T14:57:35.775Z,6.72
2022-10-17T15:00:05.284Z,5.70
2022-10-17T15:02:35.049Z,3.67
2022-10-17T15:05:03.517Z,3.00
2022-10-17T15:07:31.912Z,5.65
2022-10-17T15:10:00.611Z,4.95
2022-10-17T15:12:29.160Z,5.68
2022-10-17T15:14:58.130Z,4.85
2022-10-17T15:17:28.549Z,6.20
2022-10-17T15:19:58.850Z,5.88
2022-10-17T15:22:27.885Z,7.43
2022-10-17T15:24:56.675Z,6.85
2022-10-17T15:27:27.631Z,4.82
2022-10-17T15:29:56.168Z,7.18
2022-10-17T15:32:24.773Z,5.25
2022-10-17T15:34:53.152Z,7.40
2022-10-17T15:37:25.796Z,8.38
2022-10-17T15:39:55.706Z,6.20
2022-10-17T15:42:28.031Z,7.40
2022-10-17T15:44:57.281Z,5.43
2022-10-17T15:47:29.239Z,8.48
2022-10-17T15:49:58.497Z,3.72
2022-10-17T15:52:28.823Z,4.53
2022-10-17T15:54:59.676Z,4.40
2022-10-17T15:57:38.199Z,3.22
2022-10-17T16:00:16.612Z,3.97
2022-10-17T16:02:46.276Z,4.25
2022-10-17T16:05:17.049Z,4.03
2022-10-17T16:07:47.804Z,6.13
2022-10-17T16:10:17.002Z,4.82
2022-10-17T16:12:46.362Z,4.53
2022-10-17T16:15:16.382Z,4.60
2022-10-17T16:17:45.760Z,5.63
2022-10-17T16:20:15.780Z,4.45
2022-10-17T16:22:47.664Z,4.28
2022-10-17T16:25:24.613Z,5.10
2022-10-17T16:27:54.982Z,3.67
2022-10-17T16:30:27.438Z,5.45
2022-10-17T16:32:57.273Z,5.15
2022-10-17T16:35:30.650Z,5.55
2022-10-17T16:38:03.357Z,4.82
2022-10-17T16:40:35.658Z,7.03
2022-10-17T16:43:04.497Z,5.85
2022-10-17T16:45:33.115Z,8.32
2022-10-17T16:48:01.579Z,9.55
2022-10-17T16:50:31.181Z,4.60
2022-10-17T16:52:59.848Z,3.80
2022-10-17T16:55:30.054Z,3.65
2022-10-17T16:57:59.954Z,6.05
2022-10-17T17:00:28.557Z,3.53
2022-10-17T17:02:57.281Z,5.25
2022-10-17T17:05:25.719Z,3.67
2022-10-17T17:07:55.655Z,3.50
2022-10-17T17:10:24.143Z,3.72
2022-10-17T17:12:53.915Z,2.83
2022-10-17T17:15:22.274Z,2.63
2022-10-17T17:17:54.876Z,3.00
2022-10-17T17:20:24.146Z,3.08
2022-10-17T17:22:52.620Z,3.97
2022-10-17T17:25:21.062Z,2.80
2022-10-17T17:27:49.552Z,3.13
2022-10-17T17:30:19.645Z,2.55
2022-10-17T17:32:48.095Z,3.03
2022-10-17T17:35:16.534Z,3.17
2022-10-17T17:37:45.137Z,3.60
2022-10-17T17:40:13.703Z,4.55
2022-10-17T17:42:42.193Z,2.85
2022-10-17T17:45:12.091Z,2.88
2022-10-17T17:47:42.201Z,2.50
2022-10-17T17:50:10.841Z,2.35
2022-10-17T17:52:41.788Z,4.07
2022-10-17T17:55:10.648Z,2.92
2022-10-17T17:57:39.357Z,4.32
2022-10-17T18:00:09.185Z,4.65
2022-10-17T18:02:40.825Z,3.63
2022-10-17T18:05:13.446Z,3.17
2022-10-17T18:07:41.804Z,4.38
2022-10-17T18:12:43.847Z,3.60
2022-10-17T18:15:12.712Z,9.20
2022-10-17T18:17:41.451Z,5.53
2022-10-17T18:20:10.929Z,4.50
2022-10-17T18:22:41.953Z,3.92
2022-10-17T18:25:10.719Z,4.68
2022-10-17T18:27:39.231Z,5.22
2022-10-17T18:30:08.916Z,4.80
2022-10-17T18:32:50.545Z,5.20
2022-10-17T18:35:19.233Z,7.57
2022-10-17T18:37:49.863Z,3.83
2022-10-17T18:40:18.601Z,3.95
2022-10-17T18:42:46.973Z,3.53
2022-10-17T18:45:15.644Z,4.03
2022-10-17T18:47:45.286Z,4.00
2022-10-17T18:50:13.881Z,3.22
2022-10-17T18:52:42.278Z,4.63
2022-10-17T18:55:12.049Z,5.13
2022-10-17T18:57:40.407Z,5.28
2022-10-17T19:00:10.724Z,5.70
2022-10-17T19:02:39.528Z,4.80
2022-10-17T19:05:08.843Z,4.00
2022-10-17T19:07:37.261Z,3.63
2022-10-17T19:10:06.004Z,4.45
2022-10-17T19:12:35.899Z,4.80
2022-10-17T19:15:04.716Z,4.57
2022-10-17T19:17:33.278Z,4.57
2022-10-17T19:20:01.808Z,3.58
2022-10-17T19:22:31.204Z,5.10
2022-10-17T19:24:59.715Z,6.07
2022-10-17T19:27:28.497Z,4.63
2022-10-17T19:29:59.037Z,7.45
2022-10-17T19:32:27.529Z,7.57
2022-10-17T19:34:56.075Z,4.53
2022-10-17T19:37:24.638Z,4.80
2022-10-17T19:39:53.089Z,7.32
2022-10-17T19:42:21.468Z,5.80
2022-10-17T19:44:50.077Z,6.47
2022-10-17T19:47:19.933Z,6.80
2022-10-17T19:49:50.125Z,6.53
2022-10-17T19:52:18.738Z,5.78
2022-10-17T19:54:47.066Z,7.85
2022-10-17T19:57:15.544Z,5.43
2022-10-17T19:59:43.916Z,4.80
2022-10-17T20:02:14.181Z,5.22
2022-10-17T20:04:54.442Z,6.53
2022-10-17T20:07:32.721Z,6.05
2022-10-17T20:10:01.439Z,6.55
2022-10-17T20:12:30.020Z,6.82
2022-10-17T20:14:58.609Z,8.75
2022-10-17T20:17:27.201Z,6.95
2022-10-17T20:19:57.116Z,6.88
2022-10-17T20:22:25.562Z,7.35
2022-10-17T20:24:53.990Z,6.63
2022-10-17T20:27:27.421Z,6.75
2022-10-17T20:30:01.499Z,10.02
2022-10-17T20:32:32.115Z,8.30
2022-10-17T20:35:02.061Z,6.45
2022-10-17T20:37:30.783Z,7.95
2022-10-17T20:40:22.798Z,10.00
2022-10-17T20:42:47.609Z,9.52
2022-10-17T20:45:15.982Z,10.93
2022-10-17T20:47:49.158Z,10.40
2022-10-17T20:52:55.815Z,11.18
2022-10-17T20:55:29.640Z,8.32
2022-10-17T20:57:58.105Z,8.98
2022-10-17T21:00:27.168Z,11.63
2022-10-17T21:05:30.453Z,9.40
2022-10-17T21:07:58.788Z,9.98
2022-10-17T21:10:35.609Z,8.10
2022-10-17T21:13:04.350Z,7.57
2022-10-17T21:15:33.173Z,7.10
2022-10-17T21:18:01.639Z,9.05
2022-10-17T21:20:31.516Z,9.45
2022-10-17T21:23:00.584Z,9.25
2022-10-17T21:25:29.108Z,9.85
2022-10-17T21:27:57.464Z,10.27
2022-10-17T21:30:25.887Z,8.07
2022-10-17T21:32:55.940Z,7.43
2022-10-17T21:35:24.449Z,7.75
2022-10-17T21:37:54.581Z,8.70
2022-10-17T21:40:23.226Z,8.15
2022-10-17T21:42:51.598Z,10.95
2022-10-17T21:45:25.818Z,11.13
2022-10-17T21:48:18.548Z,9.27
2022-10-17T21:50:42.947Z,9.93
2022-10-17T21:53:12.684Z,9.23
2022-10-17T21:55:41.040Z,7.63
2022-10-17T21:58:09.395Z,8.13
2022-10-17T22:00:37.883Z,8.23
2022-10-17T22:03:07.173Z,9.13
2022-10-17T22:05:35.737Z,9.40
2022-10-17T22:08:04.209Z,9.38
2022-10-17T22:10:36.858Z,8.43
2022-10-17T22:13:05.678Z,8.23
2022-10-17T22:15:34.076Z,7.88
2022-10-17T22:18:02.492Z,8.90
2022-10-17T22:20:30.870Z,9.07
2022-10-17T22:22:59.226Z,8.73
2022-10-17T22:25:27.713Z,9.93
2022-10-17T22:27:57.429Z,11.10
2022-10-17T22:30:25.892Z,11.32
2022-10-17T22:32:54.217Z,8.55
2022-10-17T22:35:22.564Z,9.25
2022-10-17T22:37:50.935Z,11.27
2022-10-17T22:40:19.406Z,9.30
2022-10-17T22:42:47.822Z,8.25
2022-10-17T22:45:17.593Z,11.52
2022-10-17T22:47:46.008Z,11.75
2022-10-17T22:50:14.610Z,10.80
2022-10-17T22:52:43.081Z,11.52
2022-10-17T22:55:11.456Z,11.23
2022-10-17T22:57:39.785Z,9.30
2022-10-17T23:00:10.817Z,9.35
2022-10-17T23:02:41.152Z,11.27
2022-10-17T23:05:10.161Z,11.23
2022-10-17T23:07:38.652Z,14.10
2022-10-17T23:10:07.890Z,9.95
2022-10-17T23:12:36.345Z,10.15
2022-10-17T23:15:05.530Z,10.13
2022-10-17T23:17:33.912Z,10.60
2022-10-17T23:20:03.699Z,9.85
2022-10-17T23:22:32.365Z,9.35
2022-10-17T23:25:00.977Z,9.18
2022-10-17T23:29:58.662Z,11.07
2022-10-17T23:32:27.027Z,9.48
2022-10-17T23:34:55.448Z,9.35
2022-10-17T23:37:25.310Z,10.25
2022-10-17T23:39:53.849Z,9.15
2022-10-17T23:42:22.335Z,14.30
2022-10-17T23:44:50.656Z,14.23
2022-10-17T23:47:19.061Z,13.02
2022-10-17T23:49:47.398Z,11.93
2022-10-17T23:52:15.737Z,10.65
2022-10-17T23:54:45.442Z,11.73
2022-10-17T23:57:13.804Z,15.13
2022-10-17T23:59:42.226Z,10.95
